createdAt,value
2017-08-04T00:00:50.168Z,100393.66
2017-08-04T00:03:16.541Z,100398.00
2017-08-04T00:05:42.916Z,100393.97
2017-08-04T00:08:09.285Z,100396.65
2017-08-04T00:10:35.671Z,100390.50
2017-08-04T00:13:02.038Z,100386.30
2017-08-04T00:15:28.653Z,100393.62
2017-08-04T00:17:55.024Z,100391.28
2017-08-04T00:20:21.470Z,100394.98
2017-08-04T00:22:47.871Z,100390.12
2017-08-04T00:25:14.229Z,100390.70
2017-08-04T00:27:40.660Z,100388.48
2017-08-04T00:30:07.015Z,100381.34
2017-08-04T00:32:33.370Z,100377.75
2017-08-04T00:34:59.732Z,100379.97
2017-08-04T00:37:26.127Z,100374.80
2017-08-04T00:39:52.487Z,100378.16
2017-08-04T00:42:18.878Z,100377.86
2017-08-04T00:44:45.220Z,100379.55
2017-08-04T00:47:11.571Z,100385.33
2017-08-04T00:49:37.940Z,100380.98
2017-08-04T00:52:04.417Z,100377.81
2017-08-04T00:54:30.801Z,100377.66
2017-08-04T00:56:57.146Z,100382.36
2017-08-04T00:59:23.520Z,100379.42
2017-08-04T01:01:49.940Z,100374.44
2017-08-04T01:04:16.352Z,100375.35
2017-08-04T01:06:42.743Z,100380.72
2017-08-04T01:09:09.150Z,100373.80
2017-08-04T01:11:35.511Z,100377.05
2017-08-04T01:14:01.917Z,100377.41
2017-08-04T01:16:28.280Z,100376.25
2017-08-04T01:18:54.656Z,100381.80
2017-08-04T01:21:21.024Z,100389.36
2017-08-04T01:23:47.399Z,100390.40
2017-08-04T01:26:13.751Z,100392.70
2017-08-04T01:28:40.131Z,100383.66
2017-08-04T01:31:06.527Z,100384.11
2017-08-04T01:33:32.940Z,100386.14
2017-08-04T01:35:59.366Z,100387.27
2017-08-04T01:38:25.760Z,100384.02
2017-08-04T01:40:52.138Z,100386.75
2017-08-04T01:43:18.520Z,100384.88
2017-08-04T01:45:44.904Z,100387.28
2017-08-04T01:48:11.282Z,100389.75
2017-08-04T01:50:37.657Z,100389.80
2017-08-04T01:53:04.042Z,100389.97
2017-08-04T01:55:30.472Z,100393.98
2017-08-04T01:57:56.850Z,100392.23
2017-08-04T02:00:23.311Z,100396.30
2017-08-04T02:02:49.687Z,100390.73
2017-08-04T02:05:16.068Z,100387.13
2017-08-04T02:07:42.497Z,100394.86
2017-08-04T02:10:08.859Z,100397.70
2017-08-04T02:12:35.251Z,100401.20
2017-08-04T02:15:01.656Z,100408.44
2017-08-04T02:17:28.069Z,100408.97
2017-08-04T02:19:54.476Z,100386.69
2017-08-04T02:22:20.905Z,100404.78
2017-08-04T02:24:47.274Z,100398.29
2017-08-04T02:27:13.683Z,100397.11
2017-08-04T02:29:40.074Z,100394.80
2017-08-04T02:32:06.462Z,100394.20
2017-08-04T02:34:32.949Z,100390.56
2017-08-04T02:36:59.410Z,100388.48
2017-08-04T02:39:25.793Z,100380.48
2017-08-04T02:41:52.156Z,100385.40
2017-08-04T02:44:18.548Z,100381.44
2017-08-04T02:46:44.943Z,100382.87
2017-08-04T02:49:11.320Z,100384.98
2017-08-04T02:51:37.696Z,100373.75
2017-08-04T02:54:04.072Z,100379.06
2017-08-04T02:56:30.419Z,100383.80
2017-08-04T02:58:56.760Z,100374.88
2017-08-04T03:01:23.114Z,100378.44
2017-08-04T03:03:49.495Z,100369.18
2017-08-04T03:06:15.870Z,100375.37
2017-08-04T03:08:42.243Z,100375.36
2017-08-04T03:11:08.593Z,100379.01
2017-08-04T03:13:34.947Z,100373.80
2017-08-04T03:16:01.310Z,100375.27
2017-08-04T03:18:27.682Z,100381.16
2017-08-04T03:20:54.022Z,100379.17
2017-08-04T03:23:20.373Z,100385.40
2017-08-04T03:25:46.729Z,100367.00
2017-08-04T03:28:13.351Z,100370.38
2017-08-04T03:30:39.721Z,100378.00
2017-08-04T03:33:06.097Z,100374.98
2017-08-04T03:35:32.447Z,100368.72
2017-08-04T03:37:58.852Z,100366.13
2017-08-04T03:40:25.234Z,100374.94
2017-08-04T03:42:51.616Z,100373.97
2017-08-04T03:45:18.031Z,100372.63
2017-08-04T03:47:44.424Z,100374.34
2017-08-04T03:50:10.766Z,100376.12
2017-08-04T03:52:37.126Z,100371.94
2017-08-04T03:55:03.500Z,100362.66
2017-08-04T03:57:29.897Z,100370.80
2017-08-04T03:59:56.343Z,100369.41
2017-08-04T04:02:22.749Z,100382.45
2017-08-04T04:04:49.150Z,100379.28
2017-08-04T04:07:15.586Z,100373.70
2017-08-04T04:09:41.985Z,100384.11
2017-08-04T04:12:08.387Z,100382.83
2017-08-04T04:14:34.855Z,100386.31
2017-08-04T04:17:01.247Z,100393.19
2017-08-04T04:19:27.642Z,100392.59
2017-08-04T04:21:54.032Z,100381.28
2017-08-04T04:24:20.399Z,100386.20
2017-08-04T04:26:46.782Z,100394.26
2017-08-04T04:29:13.141Z,100394.20
2017-08-04T04:31:39.508Z,100395.38
2017-08-04T04:34:05.909Z,100397.36
2017-08-04T04:36:32.287Z,100397.31
2017-08-04T04:38:58.622Z,100392.20
2017-08-04T04:41:25.022Z,100388.77
2017-08-04T04:43:51.398Z,100400.43
2017-08-04T04:46:17.773Z,100393.66
2017-08-04T04:48:44.112Z,100387.49
2017-08-04T04:51:10.470Z,100376.33
2017-08-04T04:53:36.852Z,100375.36
2017-08-04T04:56:03.233Z,100376.00
2017-08-04T04:58:29.634Z,100354.00
2017-08-04T05:00:56.005Z,100362.15
2017-08-04T05:03:22.392Z,100363.77
2017-08-04T05:05:48.761Z,100371.76
2017-08-04T05:08:15.121Z,100380.31
2017-08-04T05:10:41.476Z,100388.19
2017-08-04T05:13:07.822Z,100392.49
2017-08-04T05:15:34.342Z,100388.94
2017-08-04T05:18:00.694Z,100398.03
2017-08-04T05:20:27.068Z,100399.41
2017-08-04T05:22:53.464Z,100394.45
2017-08-04T05:25:20.693Z,100378.41
2017-08-04T05:27:47.043Z,100371.17
2017-08-04T05:30:13.439Z,100377.72
2017-08-04T05:32:39.815Z,100374.41
2017-08-04T05:35:06.199Z,100384.33
2017-08-04T05:37:32.555Z,100400.48
2017-08-04T05:39:58.921Z,100407.25
2017-08-04T05:42:25.314Z,100401.08
2017-08-04T05:44:51.720Z,100397.38
2017-08-04T05:47:18.112Z,100398.88
2017-08-04T05:49:44.487Z,100409.13
2017-08-04T05:52:10.904Z,100412.45
2017-08-04T05:54:37.270Z,100411.70
2017-08-04T05:57:03.642Z,100413.21
2017-08-04T05:59:29.993Z,100413.30
2017-08-04T06:01:56.382Z,100415.03
2017-08-04T06:04:22.767Z,100418.58
2017-08-04T06:06:49.183Z,100406.23
2017-08-04T06:09:15.542Z,100397.06
2017-08-04T06:11:41.911Z,100406.93
2017-08-04T06:14:08.270Z,100411.12
2017-08-04T06:16:34.645Z,100403.98
2017-08-04T06:19:01.086Z,100411.92
2017-08-04T06:21:27.459Z,100418.62
2017-08-04T06:23:53.822Z,100412.89
2017-08-04T06:26:20.355Z,100409.93
2017-08-04T06:28:46.756Z,100421.95
2017-08-04T06:31:13.117Z,100424.55
2017-08-04T06:33:39.506Z,100422.47
2017-08-04T06:36:05.889Z,100427.77
2017-08-04T06:38:32.257Z,100435.23
2017-08-04T06:40:58.637Z,100435.60
2017-08-04T06:43:24.999Z,100438.89
2017-08-04T06:45:51.341Z,100440.81
2017-08-04T06:48:29.867Z,100426.48
2017-08-04T06:51:08.290Z,100433.95
2017-08-04T06:53:46.641Z,100440.09
2017-08-04T06:56:13.051Z,100445.69
2017-08-04T06:58:39.420Z,100429.98
2017-08-04T07:01:05.799Z,100430.36
2017-08-04T07:03:32.161Z,100421.34
2017-08-04T07:05:58.559Z,100422.41
2017-08-04T07:08:24.922Z,100421.11
2017-08-04T07:10:51.272Z,100424.33
2017-08-04T07:13:17.650Z,100430.13
2017-08-04T07:15:44.038Z,100426.12
2017-08-04T07:18:10.414Z,100421.28
2017-08-04T07:20:36.788Z,100422.92
2017-08-04T07:23:03.170Z,100424.13
2017-08-04T07:25:29.553Z,100426.10
2017-08-04T07:27:55.950Z,100427.83
2017-08-04T07:30:22.332Z,100434.05
2017-08-04T07:32:48.684Z,100430.13
2017-08-04T07:35:15.076Z,100431.27
2017-08-04T07:37:41.477Z,100432.73
2017-08-04T07:40:07.843Z,100441.60
2017-08-04T07:42:34.201Z,100437.30
2017-08-04T07:45:00.621Z,100435.91
2017-08-04T07:47:26.997Z,100427.27
2017-08-04T07:49:53.376Z,100439.88
2017-08-04T07:52:19.741Z,100431.05
2017-08-04T07:54:46.139Z,100429.29
2017-08-04T07:57:12.497Z,100426.13
2017-08-04T07:59:38.870Z,100432.29
2017-08-04T08:02:05.251Z,100425.95
2017-08-04T08:04:31.620Z,100424.64
2017-08-04T08:06:58.015Z,100424.64
2017-08-04T08:09:24.362Z,100422.04
2017-08-04T08:11:50.738Z,100421.19
2017-08-04T08:14:17.109Z,100432.67
2017-08-04T08:16:43.476Z,100431.27
2017-08-04T08:19:09.865Z,100425.28
2017-08-04T08:21:36.216Z,100427.27
2017-08-04T08:24:02.609Z,100431.79
2017-08-04T08:26:28.940Z,100429.36
2017-08-04T08:28:55.320Z,100425.66
2017-08-04T08:31:21.727Z,100425.37
2017-08-04T08:33:48.107Z,100431.27
2017-08-04T08:36:14.468Z,100446.45
2017-08-04T08:38:40.856Z,100437.90
2017-08-04T08:41:07.214Z,100434.55
2017-08-04T08:43:33.650Z,100435.24
2017-08-04T08:46:00.068Z,100435.90
2017-08-04T08:48:26.441Z,100440.48
2017-08-04T08:50:52.808Z,100432.91
2017-08-04T08:53:19.156Z,100431.99
2017-08-04T08:55:45.537Z,100429.03
2017-08-04T08:58:12.021Z,100425.52
2017-08-04T09:00:38.773Z,100428.08
2017-08-04T09:03:05.175Z,100432.87
2017-08-04T09:05:31.550Z,100437.19
2017-08-04T09:07:57.959Z,100441.30
2017-08-04T09:10:24.325Z,100434.55
2017-08-04T09:12:51.331Z,100441.55
2017-08-04T09:15:17.706Z,100454.70
2017-08-04T09:17:44.479Z,100430.78
2017-08-04T09:20:10.847Z,100434.91
2017-08-04T09:22:37.223Z,100434.37
2017-08-04T09:25:03.602Z,100438.16
2017-08-04T09:27:30.077Z,100435.17
2017-08-04T09:29:56.475Z,100434.27
2017-08-04T09:32:22.908Z,100429.58
2017-08-04T09:34:49.266Z,100440.47
2017-08-04T09:37:15.622Z,100442.52
2017-08-04T09:39:41.992Z,100430.94
2017-08-04T09:42:08.380Z,100432.06
2017-08-04T09:44:34.752Z,100442.01
2017-08-04T09:47:01.155Z,100443.94
2017-08-04T09:49:27.531Z,100448.67
2017-08-04T09:51:53.898Z,100444.46
2017-08-04T09:54:20.266Z,100445.30
2017-08-04T09:56:46.624Z,100452.99
2017-08-04T09:59:12.989Z,100457.53
2017-08-04T10:01:39.361Z,100452.66
2017-08-04T10:04:06.492Z,100457.54
2017-08-04T10:06:32.859Z,100461.15
2017-08-04T10:08:59.256Z,100457.18
2017-08-04T10:11:25.626Z,100460.89
2017-08-04T10:13:51.975Z,100453.51
2017-08-04T10:16:18.324Z,100461.77
2017-08-04T10:18:44.908Z,100466.06
2017-08-04T10:21:11.273Z,100474.98
2017-08-04T10:23:37.621Z,100469.34
2017-08-04T10:26:03.984Z,100461.77
2017-08-04T10:28:30.361Z,100459.14
2017-08-04T10:30:56.703Z,100466.45
2017-08-04T10:33:23.073Z,100464.94
2017-08-04T10:35:49.474Z,100467.54
2017-08-04T10:38:15.847Z,100465.86
2017-08-04T10:40:42.231Z,100466.30
2017-08-04T10:43:08.655Z,100470.59
2017-08-04T10:45:35.111Z,100469.11
2017-08-04T10:48:01.505Z,100465.14
2017-08-04T10:50:27.871Z,100473.20
2017-08-04T10:52:54.243Z,100465.66
2017-08-04T10:55:20.629Z,100467.33
2017-08-04T10:57:46.992Z,100473.58
2017-08-04T11:00:13.339Z,100473.02
2017-08-04T11:02:39.699Z,100473.69
2017-08-04T11:05:06.055Z,100470.35
2017-08-04T11:07:32.451Z,100473.63
2017-08-04T11:09:58.818Z,100468.48
2017-08-04T11:12:25.218Z,100468.67
2017-08-04T11:14:51.579Z,100474.39
2017-08-04T11:17:17.957Z,100473.48
2017-08-04T11:19:44.334Z,100479.61
2017-08-04T11:22:10.741Z,100482.58
2017-08-04T11:24:37.131Z,100483.42
2017-08-04T11:27:03.529Z,100475.05
2017-08-04T11:29:29.878Z,100474.16
2017-08-04T11:31:56.282Z,100477.16
2017-08-04T11:34:22.636Z,100469.66
2017-08-04T11:36:49.020Z,100463.77
2017-08-04T11:39:15.382Z,100477.66
2017-08-04T11:41:41.734Z,100488.06
2017-08-04T11:44:08.123Z,100491.17
2017-08-04T11:46:34.502Z,100476.53
2017-08-04T11:49:00.885Z,100480.71
2017-08-04T11:51:27.237Z,100479.20
2017-08-04T11:53:53.597Z,100477.53
2017-08-04T11:56:19.947Z,100479.55
2017-08-04T11:58:46.300Z,100482.04
2017-08-04T12:01:12.662Z,100480.30
2017-08-04T12:03:39.056Z,100473.42
2017-08-04T12:06:05.435Z,100475.88
2017-08-04T12:08:31.824Z,100482.77
2017-08-04T12:10:58.217Z,100480.86
2017-08-04T12:13:24.665Z,100481.28
2017-08-04T12:15:51.027Z,100481.81
2017-08-04T12:18:17.390Z,100480.72
2017-08-04T12:20:43.790Z,100482.07
2017-08-04T12:23:10.158Z,100477.97
2017-08-04T12:25:36.520Z,100482.94
2017-08-04T12:28:02.889Z,100488.96
2017-08-04T12:30:29.256Z,100499.76
2017-08-04T12:32:55.655Z,100502.46
2017-08-04T12:35:22.006Z,100502.39
2017-08-04T12:37:48.383Z,100502.36
2017-08-04T12:40:14.747Z,100495.10
2017-08-04T12:42:41.147Z,100500.08
2017-08-04T12:45:07.547Z,100511.05
2017-08-04T12:47:33.920Z,100504.38
2017-08-04T12:50:00.274Z,100504.91
2017-08-04T12:52:26.657Z,100511.98
2017-08-04T12:54:53.011Z,100504.29
2017-08-04T12:57:19.396Z,100502.71
2017-08-04T12:59:45.804Z,100498.83
2017-08-04T13:02:12.162Z,100500.23
2017-08-04T13:04:38.537Z,100491.33
2017-08-04T13:07:04.989Z,100503.46
2017-08-04T13:09:31.357Z,100509.34
2017-08-04T13:11:57.711Z,100512.91
2017-08-04T13:14:24.417Z,100510.44
2017-08-04T13:16:50.777Z,100508.19
2017-08-04T13:19:17.159Z,100508.66
2017-08-04T13:21:53.623Z,100508.19
2017-08-04T13:37:20.346Z,100528.59
2017-08-04T13:39:46.707Z,100523.23
2017-08-04T13:42:13.066Z,100524.63
2017-08-04T13:44:39.435Z,100529.17
2017-08-04T13:47:05.794Z,100528.27
2017-08-04T13:49:32.192Z,100525.25
2017-08-04T13:51:58.543Z,100533.25
2017-08-04T13:54:24.960Z,100526.28
2017-08-04T13:56:51.364Z,100533.09
2017-08-04T13:59:17.834Z,100535.80
2017-08-04T14:01:44.229Z,100537.53
2017-08-04T14:04:10.592Z,100526.66
2017-08-04T14:06:36.965Z,100544.65
2017-08-04T14:09:03.409Z,100532.61
2017-08-04T14:11:29.788Z,100535.89
2017-08-04T14:13:56.147Z,100530.17
2017-08-04T14:16:22.546Z,100533.16
2017-08-04T14:18:48.933Z,100531.74
2017-08-04T14:21:15.352Z,100543.73
2017-08-04T14:23:41.737Z,100544.70
2017-08-04T14:26:08.119Z,100550.59
2017-08-04T14:28:34.482Z,100546.13
2017-08-04T14:31:00.839Z,100541.33
2017-08-04T14:33:27.241Z,100541.47
2017-08-04T14:35:53.605Z,100549.42
2017-08-04T14:38:19.986Z,100541.75
2017-08-04T14:40:46.346Z,100548.95
2017-08-04T14:43:12.759Z,100543.80
2017-08-04T14:45:39.192Z,100550.67
2017-08-04T14:48:05.602Z,100541.39
2017-08-04T14:50:31.983Z,100539.84
2017-08-04T14:52:58.368Z,100550.05
2017-08-04T14:55:24.746Z,100543.59
2017-08-04T14:57:51.130Z,100541.70
2017-08-04T15:00:17.500Z,100541.22
2017-08-04T15:02:43.866Z,100544.09
2017-08-04T15:05:10.279Z,100542.14
2017-08-04T15:07:36.625Z,100544.66
2017-08-04T15:10:03.031Z,100535.49
2017-08-04T15:12:29.403Z,100544.03
2017-08-04T15:14:55.783Z,100541.94
2017-08-04T15:17:22.180Z,100550.96
2017-08-04T15:19:48.529Z,100542.12
2017-08-04T15:22:14.913Z,100544.03
2017-08-04T15:24:41.286Z,100544.64
2017-08-04T15:27:07.650Z,100545.73
2017-08-04T15:29:34.026Z,100538.27
2017-08-04T15:32:00.405Z,100538.62
2017-08-04T15:34:26.815Z,100541.16
2017-08-04T15:36:53.175Z,100535.56
2017-08-04T15:39:19.545Z,100542.58
2017-08-04T15:41:45.925Z,100546.55
2017-08-04T15:44:12.287Z,100543.28
2017-08-04T15:46:38.666Z,100539.73
2017-08-04T15:49:05.049Z,100537.21
2017-08-04T15:51:31.419Z,100535.26
2017-08-04T15:53:57.804Z,100540.66
2017-08-04T15:56:24.187Z,100532.91
2017-08-04T15:58:50.549Z,100529.36
2017-08-04T16:01:16.933Z,100529.47
2017-08-04T16:03:43.316Z,100522.82
2017-08-04T16:06:09.701Z,100523.81
2017-08-04T16:08:36.055Z,100532.09
2017-08-04T16:11:02.416Z,100525.24
2017-08-04T16:13:28.879Z,100526.34
2017-08-04T16:15:55.237Z,100529.82
2017-08-04T16:18:21.605Z,100532.17
2017-08-04T16:20:47.973Z,100524.99
2017-08-04T16:23:14.337Z,100524.25
2017-08-04T16:25:40.715Z,100526.80
2017-08-04T16:28:07.073Z,100526.41
2017-08-04T16:30:33.490Z,100528.80
2017-08-04T16:32:59.867Z,100520.19
2017-08-04T16:35:26.230Z,100517.59
2017-08-04T16:37:52.615Z,100529.11
2017-08-04T16:40:19.008Z,100530.23
2017-08-04T16:42:45.404Z,100535.11
2017-08-04T16:45:11.813Z,100534.11
2017-08-04T16:47:38.205Z,100532.62
2017-08-04T16:50:04.609Z,100539.45
2017-08-04T16:52:30.989Z,100534.87
2017-08-04T16:54:57.427Z,100548.13
2017-08-04T16:57:23.789Z,100544.84
2017-08-04T16:59:50.215Z,100535.89
2017-08-04T17:02:16.587Z,100540.16
2017-08-04T17:04:42.965Z,100543.88
2017-08-04T17:07:09.356Z,100550.62
2017-08-04T17:09:35.741Z,100552.22
2017-08-04T17:12:02.095Z,100546.67
2017-08-04T17:14:28.520Z,100557.03
2017-08-04T17:16:54.929Z,100556.94
2017-08-04T17:19:21.318Z,100565.55
2017-08-04T17:21:47.682Z,100556.93
2017-08-04T17:24:14.068Z,100556.85
2017-08-04T17:26:40.434Z,100567.89
2017-08-04T17:29:06.817Z,100563.66
2017-08-04T17:31:33.263Z,100563.59
2017-08-04T17:34:01.051Z,100568.72
2017-08-04T17:36:27.581Z,100567.62
2017-08-04T17:38:53.927Z,100572.25
2017-08-04T17:41:20.314Z,100574.27
2017-08-04T17:43:46.684Z,100569.71
2017-08-04T17:46:13.059Z,100572.91
2017-08-04T17:48:39.463Z,100576.25
2017-08-04T17:51:05.859Z,100580.23
2017-08-04T17:53:32.239Z,100578.73
2017-08-04T17:55:58.612Z,100578.03
2017-08-04T17:58:34.068Z,100576.45
2017-08-04T18:01:00.444Z,100583.67
2017-08-04T18:03:26.834Z,100590.33
2017-08-04T18:05:53.187Z,100582.05
2017-08-04T18:08:19.560Z,100590.34
2017-08-04T18:10:45.932Z,100586.77
2017-08-04T18:13:12.291Z,100594.22
2017-08-04T18:15:38.691Z,100599.92
2017-08-04T18:18:05.063Z,100603.63
2017-08-04T18:20:31.411Z,100601.58
2017-08-04T18:22:57.804Z,100605.31
2017-08-04T18:25:24.181Z,100611.11
2017-08-04T18:27:50.559Z,100611.16
2017-08-04T18:30:16.942Z,100605.25
2017-08-04T18:32:43.293Z,100610.45
2017-08-04T18:35:09.667Z,100610.30
2017-08-04T18:37:36.048Z,100609.77
2017-08-04T18:40:02.498Z,100610.80
2017-08-04T18:42:28.887Z,100609.00
2017-08-04T18:44:55.233Z,100611.39
2017-08-04T18:47:21.601Z,100614.84
2017-08-04T18:49:47.982Z,100609.55
2017-08-04T18:52:14.958Z,100608.77
2017-08-04T18:54:41.433Z,100613.56
2017-08-04T18:57:07.782Z,100620.46
2017-08-04T18:59:34.644Z,100616.75
2017-08-04T19:02:01.021Z,100616.98
2017-08-04T19:04:27.377Z,100615.73
2017-08-04T19:06:53.740Z,100615.14
2017-08-04T19:09:20.112Z,100610.88
2017-08-04T19:11:46.481Z,100612.32
2017-08-04T19:14:12.846Z,100612.48
2017-08-04T19:16:39.252Z,100610.84
2017-08-04T19:19:05.694Z,100609.92
2017-08-04T19:21:32.092Z,100610.36
2017-08-04T19:23:58.461Z,100613.73
2017-08-04T19:26:24.875Z,100609.86
2017-08-04T19:28:51.277Z,100617.19
2017-08-04T19:31:17.654Z,100620.83
2017-08-04T19:33:44.026Z,100625.70
2017-08-04T19:36:10.429Z,100631.48
2017-08-04T19:38:36.834Z,100632.69
2017-08-04T19:41:03.189Z,100630.20
2017-08-04T19:43:29.638Z,100636.92
2017-08-04T19:45:56.000Z,100641.59
2017-08-04T19:48:22.405Z,100641.81
2017-08-04T19:50:48.780Z,100643.19
2017-08-04T19:53:15.160Z,100643.52
2017-08-04T19:55:41.538Z,100640.62
2017-08-04T19:58:07.947Z,100645.58
2017-08-04T20:00:34.344Z,100646.98
2017-08-04T20:03:00.758Z,100644.34
2017-08-04T20:05:27.534Z,100635.23
2017-08-04T20:07:53.908Z,100628.75
2017-08-04T20:10:20.346Z,100637.92
2017-08-04T20:12:46.719Z,100645.25
2017-08-04T20:15:13.093Z,100645.92
2017-08-04T20:17:39.570Z,100647.03
2017-08-04T20:20:05.961Z,100645.70
2017-08-04T20:22:32.343Z,100649.85
2017-08-04T20:24:58.719Z,100654.64
2017-08-04T20:27:25.114Z,100647.92
2017-08-04T20:29:51.476Z,100648.17
2017-08-04T20:32:17.890Z,100652.55
2017-08-04T20:34:44.262Z,100653.48
2017-08-04T20:37:10.654Z,100652.58
2017-08-04T20:39:37.031Z,100654.34
2017-08-04T20:42:03.417Z,100649.16
2017-08-04T20:44:29.788Z,100658.14
2017-08-04T20:46:56.165Z,100653.75
2017-08-04T20:49:22.555Z,100657.77
2017-08-04T20:51:48.936Z,100655.04
2017-08-04T20:54:15.275Z,100649.78
2017-08-04T20:56:42.225Z,100647.02
2017-08-04T20:59:08.731Z,100649.50
2017-08-04T21:01:35.092Z,100651.59
2017-08-04T21:04:01.562Z,100651.64
2017-08-04T21:06:27.989Z,100656.47
2017-08-04T21:08:54.339Z,100652.80
2017-08-04T21:11:20.711Z,100655.78
2017-08-04T21:13:47.085Z,100654.66
2017-08-04T21:16:13.492Z,100654.72
2017-08-04T21:18:40.317Z,100649.23
2017-08-04T21:21:07.456Z,100659.55
2017-08-04T21:23:33.859Z,100663.28
2017-08-04T21:26:00.207Z,100663.16
2017-08-04T21:28:26.596Z,100666.80
2017-08-04T21:30:53.008Z,100662.80
2017-08-04T21:33:19.378Z,100665.44
2017-08-04T21:35:45.765Z,100669.36
2017-08-04T21:38:12.237Z,100673.45
2017-08-04T21:40:38.657Z,100668.94
2017-08-04T21:43:05.028Z,100668.00
2017-08-04T21:45:31.368Z,100659.58
2017-08-04T21:47:58.254Z,100665.76
2017-08-04T21:50:24.658Z,100659.50
2017-08-04T21:52:51.087Z,100656.25
2017-08-04T21:55:17.467Z,100656.73
2017-08-04T21:57:43.849Z,100653.87
2017-08-04T22:00:10.232Z,100649.20
2017-08-04T22:02:36.604Z,100647.80
2017-08-04T22:05:02.962Z,100654.84
2017-08-04T22:07:29.352Z,100645.19
2017-08-04T22:09:56.069Z,100654.70
2017-08-04T22:12:22.387Z,100643.75
2017-08-04T22:14:48.774Z,100641.58
2017-08-04T22:17:15.123Z,100637.01
2017-08-04T22:19:41.499Z,100642.84
2017-08-04T22:22:08.025Z,100642.98
2017-08-04T22:24:34.459Z,100642.42
2017-08-04T22:27:00.824Z,100648.88
2017-08-04T22:29:27.211Z,100643.38
2017-08-04T22:31:53.602Z,100649.91
2017-08-04T22:34:19.944Z,100644.41
2017-08-04T22:36:46.328Z,100649.20
2017-08-04T22:39:12.701Z,100650.82
2017-08-04T22:41:39.058Z,100659.12
2017-08-04T22:44:05.433Z,100659.11
2017-08-04T22:46:31.806Z,100666.05
2017-08-04T22:48:58.170Z,100665.64
2017-08-04T22:51:24.531Z,100659.53
2017-08-04T22:53:50.930Z,100671.75
2017-08-04T22:56:17.292Z,100674.76
2017-08-04T22:58:43.701Z,100664.73
2017-08-04T23:01:10.084Z,100659.52
2017-08-04T23:03:37.033Z,100655.72
2017-08-04T23:06:03.446Z,100662.78
2017-08-04T23:08:29.820Z,100659.44
2017-08-04T23:10:56.214Z,100655.00
2017-08-04T23:13:22.575Z,100649.38
2017-08-04T23:15:48.938Z,100654.88
2017-08-04T23:18:15.332Z,100654.22
2017-08-04T23:20:41.747Z,100658.52
2017-08-04T23:23:08.623Z,100652.20
2017-08-04T23:25:35.684Z,100656.11
2017-08-04T23:28:02.535Z,100658.53
2017-08-04T23:30:28.971Z,100652.58
2017-08-04T23:32:55.343Z,100663.06
2017-08-04T23:35:21.707Z,100664.31
2017-08-04T23:37:48.092Z,100666.26
2017-08-04T23:40:14.508Z,100676.95
2017-08-04T23:42:40.903Z,100676.26
2017-08-04T23:45:07.899Z,100684.24
2017-08-04T23:47:35.102Z,100695.80
2017-08-04T23:50:01.534Z,100686.83
2017-08-04T23:52:27.934Z,100675.64
2017-08-04T23:54:54.323Z,100665.47
2017-08-04T23:57:21.063Z,100656.84
2017-08-04T23:59:47.430Z,100651.06
